sensor_id;sensor_type;location;lat;lon;timestamp;temperature;humidity
7046;DHT22;3564;53.326;10.356;2022-12-29T00:02:17;11.00;99.90
7046;DHT22;3564;53.326;10.356;2022-12-29T00:04:43;10.90;99.90
7046;DHT22;3564;53.326;10.356;2022-12-29T00:07:10;10.90;99.90
7046;DHT22;3564;53.326;10.356;2022-12-29T00:09:36;10.90;99.90
7046;DHT22;3564;53.326;10.356;2022-12-29T00:12:03;10.90;99.90
7046;DHT22;3564;53.326;10.356;2022-12-29T00:14:29;11.00;99.90
7046;DHT22;3564;53.326;10.356;2022-12-29T00:17:13;11.00;99.90
7046;DHT22;3564;53.326;10.356;2022-12-29T00:19:40;11.10;99.90
7046;DHT22;3564;53.326;10.356;2022-12-29T00:22:24;11.10;99.90
7046;DHT22;3564;53.326;10.356;2022-12-29T00:25:13;11.10;99.90
7046;DHT22;3564;53.326;10.356;2022-12-29T00:27:57;11.10;99.90
7046;DHT22;3564;53.326;10.356;2022-12-29T00:30:42;11.10;99.90
7046;DHT22;3564;53.326;10.356;2022-12-29T00:33:29;11.10;99.90
7046;DHT22;3564;53.326;10.356;2022-12-29T00:36:37;11.20;99.90
7046;DHT22;3564;53.326;10.356;2022-12-29T00:39:16;11.20;99.90
7046;DHT22;3564;53.326;10.356;2022-12-29T00:42:06;11.20;99.90
7046;DHT22;3564;53.326;10.356;2022-12-29T00:44:50;11.30;99.90
7046;DHT22;3564;53.326;10.356;2022-12-29T00:47:16;11.30;99.90
7046;DHT22;3564;53.326;10.356;2022-12-29T00:49:42;11.30;99.90
7046;DHT22;3564;53.326;10.356;2022-12-29T00:52:09;11.30;99.90
7046;DHT22;3564;53.326;10.356;2022-12-29T00:54:37;11.40;99.90
7046;DHT22;3564;53.326;10.356;2022-12-29T00:57:05;11.40;99.90
7046;DHT22;3564;53.326;10.356;2022-12-29T00:59:31;11.40;99.90
7046;DHT22;3564;53.326;10.356;2022-12-29T01:01:57;11.50;99.90
7046;DHT22;3564;53.326;10.356;2022-12-29T01:04:24;11.50;99.90
7046;DHT22;3564;53.326;10.356;2022-12-29T01:06:50;11.50;99.90
7046;DHT22;3564;53.326;10.356;2022-12-29T01:09:18;11.50;99.90
7046;DHT22;3564;53.326;10.356;2022-12-29T01:12:04;11.50;99.90
7046;DHT22;3564;53.326;10.356;2022-12-29T01:14:30;11.50;99.90
7046;DHT22;3564;53.326;10.356;2022-12-29T01:16:56;11.60;99.90
7046;DHT22;3564;53.326;10.356;2022-12-29T01:19:25;11.60;99.90
7046;DHT22;3564;53.326;10.356;2022-12-29T01:21:59;11.60;99.90
7046;DHT22;3564;53.326;10.356;2022-12-29T01:24:25;11.60;99.90
7046;DHT22;3564;53.326;10.356;2022-12-29T01:26:54;11.70;99.90
7046;DHT22;3564;53.326;10.356;2022-12-29T01:29:20;11.70;99.90
7046;DHT22;3564;53.326;10.356;2022-12-29T01:31:46;11.70;99.90
7046;DHT22;3564;53.326;10.356;2022-12-29T01:34:11;11.70;99.90
7046;DHT22;3564;53.326;10.356;2022-12-29T01:36:38;11.70;99.90
7046;DHT22;3564;53.326;10.356;2022-12-29T01:39:12;11.80;99.90
7046;DHT22;3564;53.326;10.356;2022-12-29T01:41:38;11.80;99.90
7046;DHT22;3564;53.326;10.356;2022-12-29T01:47:08;11.80;99.90
7046;DHT22;3564;53.326;10.356;2022-12-29T01:49:36;11.80;99.90
7046;DHT22;3564;53.326;10.356;2022-12-29T01:52:06;11.80;99.90
7046;DHT22;3564;53.326;10.356;2022-12-29T01:54:37;11.80;99.90
7046;DHT22;3564;53.326;10.356;2022-12-29T01:57:13;11.80;99.90
7046;DHT22;3564;53.326;10.356;2022-12-29T01:59:47;11.80;99.90
7046;DHT22;3564;53.326;10.356;2022-12-29T02:02:14;11.80;99.90
7046;DHT22;3564;53.326;10.356;2022-12-29T02:04:43;11.80;99.90
7046;DHT22;3564;53.326;10.356;2022-12-29T02:07:15;11.80;99.90
7046;DHT22;3564;53.326;10.356;2022-12-29T02:09:42;11.80;99.90
7046;DHT22;3564;53.326;10.356;2022-12-29T02:12:09;11.80;99.90
7046;DHT22;3564;53.326;10.356;2022-12-29T02:14:38;11.80;99.90
7046;DHT22;3564;53.326;10.356;2022-12-29T02:17:19;11.90;99.90
7046;DHT22;3564;53.326;10.356;2022-12-29T02:31:17;11.90;99.90
7046;DHT22;3564;53.326;10.356;2022-12-29T02:33:56;11.90;99.90
7046;DHT22;3564;53.326;10.356;2022-12-29T02:39:21;12.00;99.90
7046;DHT22;3564;53.326;10.356;2022-12-29T02:50:03;12.10;99.90
7046;DHT22;3564;53.326;10.356;2022-12-29T02:52:39;12.10;99.90
7046;DHT22;3564;53.326;10.356;2022-12-29T02:55:05;12.10;99.90
7046;DHT22;3564;53.326;10.356;2022-12-29T02:57:44;12.20;99.90
7046;DHT22;3564;53.326;10.356;2022-12-29T03:00:12;12.20;99.90
7046;DHT22;3564;53.326;10.356;2022-12-29T03:08:26;12.20;99.90
7046;DHT22;3564;53.326;10.356;2022-12-29T03:11:02;12.30;99.90
7046;DHT22;3564;53.326;10.356;2022-12-29T03:13:37;12.30;99.90
7046;DHT22;3564;53.326;10.356;2022-12-29T03:16:46;12.30;99.90
7046;DHT22;3564;53.326;10.356;2022-12-29T03:24:47;12.30;99.90
7046;DHT22;3564;53.326;10.356;2022-12-29T03:27:23;12.20;99.90
7046;DHT22;3564;53.326;10.356;2022-12-29T03:30:00;12.30;99.90
7046;DHT22;3564;53.326;10.356;2022-12-29T03:32:40;12.30;99.90
7046;DHT22;3564;53.326;10.356;2022-12-29T03:35:08;12.30;99.90
7046;DHT22;3564;53.326;10.356;2022-12-29T03:37:41;12.30;99.90
7046;DHT22;3564;53.326;10.356;2022-12-29T03:40:07;12.30;99.90
7046;DHT22;3564;53.326;10.356;2022-12-29T03:42:35;12.30;99.90
7046;DHT22;3564;53.326;10.356;2022-12-29T03:45:01;12.30;99.90
7046;DHT22;3564;53.326;10.356;2022-12-29T03:47:29;12.30;99.90
7046;DHT22;3564;53.326;10.356;2022-12-29T03:49:54;12.30;99.90
7046;DHT22;3564;53.326;10.356;2022-12-29T03:52:23;12.30;99.90
7046;DHT22;3564;53.326;10.356;2022-12-29T03:54:48;12.30;99.90
7046;DHT22;3564;53.326;10.356;2022-12-29T03:57:14;12.30;99.90
7046;DHT22;3564;53.326;10.356;2022-12-29T03:59:40;12.30;99.90
7046;DHT22;3564;53.326;10.356;2022-12-29T04:02:05;12.30;99.90
7046;DHT22;3564;53.326;10.356;2022-12-29T04:04:31;12.40;99.90
7046;DHT22;3564;53.326;10.356;2022-12-29T04:06:56;12.40;99.90
7046;DHT22;3564;53.326;10.356;2022-12-29T04:09:22;12.50;99.90
7046;DHT22;3564;53.326;10.356;2022-12-29T04:11:57;12.50;99.90
7046;DHT22;3564;53.326;10.356;2022-12-29T04:14:22;12.50;99.90
7046;DHT22;3564;53.326;10.356;2022-12-29T04:16:48;12.60;99.90
7046;DHT22;3564;53.326;10.356;2022-12-29T04:19:13;12.60;99.90
7046;DHT22;3564;53.326;10.356;2022-12-29T04:21:39;12.60;99.90
7046;DHT22;3564;53.326;10.356;2022-12-29T04:24:05;12.50;99.90
7046;DHT22;3564;53.326;10.356;2022-12-29T04:26:35;12.50;99.90
7046;DHT22;3564;53.326;10.356;2022-12-29T04:29:00;12.50;99.90
7046;DHT22;3564;53.326;10.356;2022-12-29T04:31:26;12.40;99.90
7046;DHT22;3564;53.326;10.356;2022-12-29T04:33:51;12.40;99.90
7046;DHT22;3564;53.326;10.356;2022-12-29T04:36:20;12.40;99.90
7046;DHT22;3564;53.326;10.356;2022-12-29T04:38:45;12.40;99.90
7046;DHT22;3564;53.326;10.356;2022-12-29T04:41:14;12.40;99.90
7046;DHT22;3564;53.326;10.356;2022-12-29T04:43:39;12.40;99.90
7046;DHT22;3564;53.326;10.356;2022-12-29T04:46:05;12.40;99.90
7046;DHT22;3564;53.326;10.356;2022-12-29T04:48:31;12.40;99.90
7046;DHT22;3564;53.326;10.356;2022-12-29T04:50:57;12.40;99.90
7046;DHT22;3564;53.326;10.356;2022-12-29T04:53:22;12.40;99.90
7046;DHT22;3564;53.326;10.356;2022-12-29T04:55:50;12.50;99.90
7046;DHT22;3564;53.326;10.356;2022-12-29T04:58:15;12.40;99.90
7046;DHT22;3564;53.326;10.356;2022-12-29T05:00:41;12.50;99.90
7046;DHT22;3564;53.326;10.356;2022-12-29T05:03:06;12.50;99.90
7046;DHT22;3564;53.326;10.356;2022-12-29T05:05:32;12.50;99.90
7046;DHT22;3564;53.326;10.356;2022-12-29T05:07:57;12.50;99.90
7046;DHT22;3564;53.326;10.356;2022-12-29T05:10:23;12.50;99.90
7046;DHT22;3564;53.326;10.356;2022-12-29T05:12:48;12.40;99.90
7046;DHT22;3564;53.326;10.356;2022-12-29T05:15:14;12.40;99.90
7046;DHT22;3564;53.326;10.356;2022-12-29T05:17:40;12.40;99.90
7046;DHT22;3564;53.326;10.356;2022-12-29T05:20:06;12.50;99.90
7046;DHT22;3564;53.326;10.356;2022-12-29T05:22:32;12.50;99.90
7046;DHT22;3564;53.326;10.356;2022-12-29T05:24:57;12.40;99.90
7046;DHT22;3564;53.326;10.356;2022-12-29T05:27:23;12.50;99.90
7046;DHT22;3564;53.326;10.356;2022-12-29T05:29:48;12.50;99.90
7046;DHT22;3564;53.326;10.356;2022-12-29T05:32:14;12.50;99.90
7046;DHT22;3564;53.326;10.356;2022-12-29T05:34:39;12.50;99.90
7046;DHT22;3564;53.326;10.356;2022-12-29T05:37:05;12.50;99.90
7046;DHT22;3564;53.326;10.356;2022-12-29T05:39:31;12.50;99.90
7046;DHT22;3564;53.326;10.356;2022-12-29T05:41:56;12.40;99.90
7046;DHT22;3564;53.326;10.356;2022-12-29T05:44:22;12.40;99.90
7046;DHT22;3564;53.326;10.356;2022-12-29T05:46:47;12.40;99.90
7046;DHT22;3564;53.326;10.356;2022-12-29T05:49:13;12.40;99.90
7046;DHT22;3564;53.326;10.356;2022-12-29T05:51:44;12.40;99.90
7046;DHT22;3564;53.326;10.356;2022-12-29T05:54:09;12.40;99.90
7046;DHT22;3564;53.326;10.356;2022-12-29T05:56:35;12.40;99.90
7046;DHT22;3564;53.326;10.356;2022-12-29T05:59:01;12.40;99.90
7046;DHT22;3564;53.326;10.356;2022-12-29T06:01:26;12.50;99.90
7046;DHT22;3564;53.326;10.356;2022-12-29T06:03:52;12.40;99.90
7046;DHT22;3564;53.326;10.356;2022-12-29T06:06:17;12.40;99.90
7046;DHT22;3564;53.326;10.356;2022-12-29T06:08:43;12.40;99.90
7046;DHT22;3564;53.326;10.356;2022-12-29T06:11:09;12.40;99.90
7046;DHT22;3564;53.326;10.356;2022-12-29T06:13:40;12.50;99.90
7046;DHT22;3564;53.326;10.356;2022-12-29T06:16:06;12.50;99.90
7046;DHT22;3564;53.326;10.356;2022-12-29T06:18:34;12.50;99.90
7046;DHT22;3564;53.326;10.356;2022-12-29T06:21:04;12.50;99.90
7046;DHT22;3564;53.326;10.356;2022-12-29T06:23:30;12.60;99.90
7046;DHT22;3564;53.326;10.356;2022-12-29T06:25:56;12.60;99.90
7046;DHT22;3564;53.326;10.356;2022-12-29T06:28:22;12.60;99.90
7046;DHT22;3564;53.326;10.356;2022-12-29T06:30:48;12.70;99.90
7046;DHT22;3564;53.326;10.356;2022-12-29T06:33:14;12.70;99.90
7046;DHT22;3564;53.326;10.356;2022-12-29T06:35:39;12.80;99.90
7046;DHT22;3564;53.326;10.356;2022-12-29T06:38:06;12.80;99.90
7046;DHT22;3564;53.326;10.356;2022-12-29T06:40:32;12.80;99.90
7046;DHT22;3564;53.326;10.356;2022-12-29T06:42:57;12.80;99.90
7046;DHT22;3564;53.326;10.356;2022-12-29T06:45:23;12.90;99.90
7046;DHT22;3564;53.326;10.356;2022-12-29T06:47:48;12.90;99.90
7046;DHT22;3564;53.326;10.356;2022-12-29T06:50:17;12.90;99.90
7046;DHT22;3564;53.326;10.356;2022-12-29T06:52:42;12.90;99.90
7046;DHT22;3564;53.326;10.356;2022-12-29T06:55:08;13.00;99.90
7046;DHT22;3564;53.326;10.356;2022-12-29T06:57:33;12.90;99.90
7046;DHT22;3564;53.326;10.356;2022-12-29T06:59:59;13.00;99.90
7046;DHT22;3564;53.326;10.356;2022-12-29T07:02:24;13.00;99.90
7046;DHT22;3564;53.326;10.356;2022-12-29T07:04:51;13.00;99.90
7046;DHT22;3564;53.326;10.356;2022-12-29T07:07:18;13.00;99.90
7046;DHT22;3564;53.326;10.356;2022-12-29T07:09:44;13.00;99.90
7046;DHT22;3564;53.326;10.356;2022-12-29T07:12:13;13.00;99.90
7046;DHT22;3564;53.326;10.356;2022-12-29T07:14:42;13.00;99.90
7046;DHT22;3564;53.326;10.356;2022-12-29T07:17:07;12.90;99.90
7046;DHT22;3564;53.326;10.356;2022-12-29T07:19:33;12.90;99.90
7046;DHT22;3564;53.326;10.356;2022-12-29T07:21:59;13.00;99.90
7046;DHT22;3564;53.326;10.356;2022-12-29T07:24:24;12.90;99.90
7046;DHT22;3564;53.326;10.356;2022-12-29T07:26:56;12.90;99.90
7046;DHT22;3564;53.326;10.356;2022-12-29T07:29:22;13.00;99.90
7046;DHT22;3564;53.326;10.356;2022-12-29T07:31:47;13.00;99.90
7046;DHT22;3564;53.326;10.356;2022-12-29T07:34:13;12.90;99.90
7046;DHT22;3564;53.326;10.356;2022-12-29T07:36:38;12.90;99.90
7046;DHT22;3564;53.326;10.356;2022-12-29T07:39:07;13.00;99.90
7046;DHT22;3564;53.326;10.356;2022-12-29T07:41:33;12.90;99.90
7046;DHT22;3564;53.326;10.356;2022-12-29T07:43:59;12.90;99.90
7046;DHT22;3564;53.326;10.356;2022-12-29T07:46:25;12.80;99.90
7046;DHT22;3564;53.326;10.356;2022-12-29T07:48:50;12.80;99.90
7046;DHT22;3564;53.326;10.356;2022-12-29T07:51:16;12.70;99.90
7046;DHT22;3564;53.326;10.356;2022-12-29T07:53:44;12.70;99.90
7046;DHT22;3564;53.326;10.356;2022-12-29T07:56:13;12.60;99.90
7046;DHT22;3564;53.326;10.356;2022-12-29T07:58:38;12.60;99.90
7046;DHT22;3564;53.326;10.356;2022-12-29T08:01:04;12.60;99.90
7046;DHT22;3564;53.326;10.356;2022-12-29T08:03:30;12.60;99.90
7046;DHT22;3564;53.326;10.356;2022-12-29T08:06:02;12.60;99.90
7046;DHT22;3564;53.326;10.356;2022-12-29T08:08:28;12.60;99.90
7046;DHT22;3564;53.326;10.356;2022-12-29T08:10:54;12.60;99.90
7046;DHT22;3564;53.326;10.356;2022-12-29T08:13:19;12.60;99.90
7046;DHT22;3564;53.326;10.356;2022-12-29T08:15:48;12.60;99.90
7046;DHT22;3564;53.326;10.356;2022-12-29T08:18:13;12.60;99.90
7046;DHT22;3564;53.326;10.356;2022-12-29T08:20:39;12.50;99.90
7046;DHT22;3564;53.326;10.356;2022-12-29T08:23:07;12.50;99.90
7046;DHT22;3564;53.326;10.356;2022-12-29T08:25:39;12.50;99.90
7046;DHT22;3564;53.326;10.356;2022-12-29T08:28:05;12.50;99.90
7046;DHT22;3564;53.326;10.356;2022-12-29T08:30:30;12.50;99.90
7046;DHT22;3564;53.326;10.356;2022-12-29T08:32:56;12.50;99.90
7046;DHT22;3564;53.326;10.356;2022-12-29T08:35:21;12.50;99.90
7046;DHT22;3564;53.326;10.356;2022-12-29T08:37:50;12.40;99.90
7046;DHT22;3564;53.326;10.356;2022-12-29T08:40:18;12.40;99.90
7046;DHT22;3564;53.326;10.356;2022-12-29T08:42:44;12.40;99.90
7046;DHT22;3564;53.326;10.356;2022-12-29T08:45:10;12.40;99.90
7046;DHT22;3564;53.326;10.356;2022-12-29T08:47:35;12.40;99.90
7046;DHT22;3564;53.326;10.356;2022-12-29T08:50:04;12.40;99.90
7046;DHT22;3564;53.326;10.356;2022-12-29T08:52:30;12.40;99.90
7046;DHT22;3564;53.326;10.356;2022-12-29T08:54:55;12.40;99.90
7046;DHT22;3564;53.326;10.356;2022-12-29T08:57:21;12.40;99.90
7046;DHT22;3564;53.326;10.356;2022-12-29T08:59:49;12.40;99.90
7046;DHT22;3564;53.326;10.356;2022-12-29T09:02:15;12.40;99.90
7046;DHT22;3564;53.326;10.356;2022-12-29T09:04:40;12.40;99.90
7046;DHT22;3564;53.326;10.356;2022-12-29T09:07:06;12.40;99.90
7046;DHT22;3564;53.326;10.356;2022-12-29T09:09:32;12.40;99.90
7046;DHT22;3564;53.326;10.356;2022-12-29T09:12:01;12.30;99.90
7046;DHT22;3564;53.326;10.356;2022-12-29T09:14:26;12.30;99.90
7046;DHT22;3564;53.326;10.356;2022-12-29T09:16:55;12.30;99.90
7046;DHT22;3564;53.326;10.356;2022-12-29T09:19:39;12.30;99.90
7046;DHT22;3564;53.326;10.356;2022-12-29T09:22:04;12.40;99.90
7046;DHT22;3564;53.326;10.356;2022-12-29T09:24:30;12.40;99.90
7046;DHT22;3564;53.326;10.356;2022-12-29T09:26:56;12.40;99.90
7046;DHT22;3564;53.326;10.356;2022-12-29T09:29:22;12.40;99.90
7046;DHT22;3564;53.326;10.356;2022-12-29T09:31:47;12.40;99.90
7046;DHT22;3564;53.326;10.356;2022-12-29T09:34:16;12.40;99.90
7046;DHT22;3564;53.326;10.356;2022-12-29T09:36:41;12.40;99.90
7046;DHT22;3564;53.326;10.356;2022-12-29T09:39:10;12.50;99.90
7046;DHT22;3564;53.326;10.356;2022-12-29T09:46:50;12.60;99.90
7046;DHT22;3564;53.326;10.356;2022-12-29T09:49:28;12.50;99.90
7046;DHT22;3564;53.326;10.356;2022-12-29T09:51:59;12.60;99.90
7046;DHT22;3564;53.326;10.356;2022-12-29T09:54:46;12.60;99.90
7046;DHT22;3564;53.326;10.356;2022-12-29T09:57:26;12.60;99.90
7046;DHT22;3564;53.326;10.356;2022-12-29T10:00:00;12.60;99.90
7046;DHT22;3564;53.326;10.356;2022-12-29T10:02:38;12.70;99.90
7046;DHT22;3564;53.326;10.356;2022-12-29T10:05:18;12.70;99.90
7046;DHT22;3564;53.326;10.356;2022-12-29T10:08:06;12.70;99.90
7046;DHT22;3564;53.326;10.356;2022-12-29T10:11:07;12.80;99.90
7046;DHT22;3564;53.326;10.356;2022-12-29T10:24:34;12.80;99.90
7046;DHT22;3564;53.326;10.356;2022-12-29T10:27:03;12.80;99.90
7046;DHT22;3564;53.326;10.356;2022-12-29T10:29:38;12.90;99.90
7046;DHT22;3564;53.326;10.356;2022-12-29T10:32:13;12.90;99.90
7046;DHT22;3564;53.326;10.356;2022-12-29T10:34:47;13.00;99.90
7046;DHT22;3564;53.326;10.356;2022-12-29T10:37:56;13.00;99.90
7046;DHT22;3564;53.326;10.356;2022-12-29T10:40:33;13.00;99.90
7046;DHT22;3564;53.326;10.356;2022-12-29T10:43:20;13.00;99.90
7046;DHT22;3564;53.326;10.356;2022-12-29T10:45:47;13.10;99.90
7046;DHT22;3564;53.326;10.356;2022-12-29T10:48:31;13.10;99.90
7046;DHT22;3564;53.326;10.356;2022-12-29T10:50:59;13.20;99.90
7046;DHT22;3564;53.326;10.356;2022-12-29T10:53:40;13.20;99.90
7046;DHT22;3564;53.326;10.356;2022-12-29T10:56:58;13.20;99.90
7046;DHT22;3564;53.326;10.356;2022-12-29T10:59:19;13.20;99.90
7046;DHT22;3564;53.326;10.356;2022-12-29T11:07:28;13.30;99.90
7046;DHT22;3564;53.326;10.356;2022-12-29T11:09:56;13.40;99.90
7046;DHT22;3564;53.326;10.356;2022-12-29T11:12:41;13.30;99.90
7046;DHT22;3564;53.326;10.356;2022-12-29T11:15:19;13.40;99.90
7046;DHT22;3564;53.326;10.356;2022-12-29T11:17:50;13.50;99.90
7046;DHT22;3564;53.326;10.356;2022-12-29T11:20:37;13.50;99.90
7046;DHT22;3564;53.326;10.356;2022-12-29T11:23:05;13.50;99.90
7046;DHT22;3564;53.326;10.356;2022-12-29T11:26:11;13.40;99.90
7046;DHT22;3564;53.326;10.356;2022-12-29T11:28:39;13.30;99.90
7046;DHT22;3564;53.326;10.356;2022-12-29T11:31:06;13.30;99.90
7046;DHT22;3564;53.326;10.356;2022-12-29T11:33:34;13.30;99.90
7046;DHT22;3564;53.326;10.356;2022-12-29T11:36:15;13.30;99.90
7046;DHT22;3564;53.326;10.356;2022-12-29T11:38:46;13.30;99.90
7046;DHT22;3564;53.326;10.356;2022-12-29T11:41:18;13.30;99.90
7046;DHT22;3564;53.326;10.356;2022-12-29T11:43:44;13.30;99.90
7046;DHT22;3564;53.326;10.356;2022-12-29T11:46:24;13.30;99.90
7046;DHT22;3564;53.326;10.356;2022-12-29T11:48:50;13.30;99.90
7046;DHT22;3564;53.326;10.356;2022-12-29T11:51:27;13.30;99.90
7046;DHT22;3564;53.326;10.356;2022-12-29T11:53:58;13.30;99.90
7046;DHT22;3564;53.326;10.356;2022-12-29T11:56:40;13.30;99.90
7046;DHT22;3564;53.326;10.356;2022-12-29T11:59:34;13.30;99.90
7046;DHT22;3564;53.326;10.356;2022-12-29T12:04:37;13.30;99.90
7046;DHT22;3564;53.326;10.356;2022-12-29T12:07:17;13.30;99.90
7046;DHT22;3564;53.326;10.356;2022-12-29T12:09:49;13.30;99.90
7046;DHT22;3564;53.326;10.356;2022-12-29T12:12:38;13.40;99.90
7046;DHT22;3564;53.326;10.356;2022-12-29T12:15:05;13.40;99.90
7046;DHT22;3564;53.326;10.356;2022-12-29T12:17:40;13.40;99.90
7046;DHT22;3564;53.326;10.356;2022-12-29T12:25:43;13.50;99.90
7046;DHT22;3564;53.326;10.356;2022-12-29T12:28:20;13.60;99.90
7046;DHT22;3564;53.326;10.356;2022-12-29T12:30:56;13.60;99.90
7046;DHT22;3564;53.326;10.356;2022-12-29T12:33:57;13.60;99.90
7046;DHT22;3564;53.326;10.356;2022-12-29T12:36:46;13.60;99.90
7046;DHT22;3564;53.326;10.356;2022-12-29T12:39:55;13.60;99.90
7046;DHT22;3564;53.326;10.356;2022-12-29T12:42:42;13.60;99.90
7046;DHT22;3564;53.326;10.356;2022-12-29T12:45:38;13.60;99.90
7046;DHT22;3564;53.326;10.356;2022-12-29T12:48:15;13.60;99.90
7046;DHT22;3564;53.326;10.356;2022-12-29T12:51:01;13.60;99.90
7046;DHT22;3564;53.326;10.356;2022-12-29T13:02:16;13.70;99.90
7046;DHT22;3564;53.326;10.356;2022-12-29T13:13:35;13.70;99.90
7046;DHT22;3564;53.326;10.356;2022-12-29T13:16:07;13.60;99.90
7046;DHT22;3564;53.326;10.356;2022-12-29T13:21:40;13.60;99.90
7046;DHT22;3564;53.326;10.356;2022-12-29T13:24:24;13.50;99.90
7046;DHT22;3564;53.326;10.356;2022-12-29T13:27:24;13.50;99.90
7046;DHT22;3564;53.326;10.356;2022-12-29T13:30:19;13.50;99.90
7046;DHT22;3564;53.326;10.356;2022-12-29T13:32:56;13.50;99.90
7046;DHT22;3564;53.326;10.356;2022-12-29T13:35:59;13.50;99.90
7046;DHT22;3564;53.326;10.356;2022-12-29T13:38:51;13.50;99.90
7046;DHT22;3564;53.326;10.356;2022-12-29T13:41:32;13.40;99.90
7046;DHT22;3564;53.326;10.356;2022-12-29T13:44:01;13.40;99.90
7046;DHT22;3564;53.326;10.356;2022-12-29T13:46:33;13.40;99.90
7046;DHT22;3564;53.326;10.356;2022-12-29T13:49:04;13.40;99.90
7046;DHT22;3564;53.326;10.356;2022-12-29T13:51:33;13.40;99.90
7046;DHT22;3564;53.326;10.356;2022-12-29T14:00:42;13.50;99.90
7046;DHT22;3564;53.326;10.356;2022-12-29T14:03:04;13.40;99.90
7046;DHT22;3564;53.326;10.356;2022-12-29T14:05:35;13.40;99.90
7046;DHT22;3564;53.326;10.356;2022-12-29T14:08:04;13.40;99.90
7046;DHT22;3564;53.326;10.356;2022-12-29T14:10:37;13.40;99.90
7046;DHT22;3564;53.326;10.356;2022-12-29T14:13:13;13.40;99.90
7046;DHT22;3564;53.326;10.356;2022-12-29T14:15:41;13.40;99.90
7046;DHT22;3564;53.326;10.356;2022-12-29T14:18:28;13.40;99.90
7046;DHT22;3564;53.326;10.356;2022-12-29T14:20:58;13.30;99.90
7046;DHT22;3564;53.326;10.356;2022-12-29T14:28:36;13.20;99.90
7046;DHT22;3564;53.326;10.356;2022-12-29T14:45:01;13.00;99.90
7046;DHT22;3564;53.326;10.356;2022-12-29T14:47:31;13.00;99.90
7046;DHT22;3564;53.326;10.356;2022-12-29T14:50:04;12.90;99.90
7046;DHT22;3564;53.326;10.356;2022-12-29T14:52:31;12.80;99.90
7046;DHT22;3564;53.326;10.356;2022-12-29T14:55:41;12.70;99.90
7046;DHT22;3564;53.326;10.356;2022-12-29T14:58:12;12.70;99.90
7046;DHT22;3564;53.326;10.356;2022-12-29T15:00:40;12.70;99.90
7046;DHT22;3564;53.326;10.356;2022-12-29T15:06:05;12.70;99.90
7046;DHT22;3564;53.326;10.356;2022-12-29T15:08:37;12.60;99.90
7046;DHT22;3564;53.326;10.356;2022-12-29T15:11:11;12.60;99.90
7046;DHT22;3564;53.326;10.356;2022-12-29T15:13:41;12.50;99.90
7046;DHT22;3564;53.326;10.356;2022-12-29T15:16:25;12.50;99.90
7046;DHT22;3564;53.326;10.356;2022-12-29T15:18:55;12.40;99.90
7046;DHT22;3564;53.326;10.356;2022-12-29T15:21:25;12.40;99.90
7046;DHT22;3564;53.326;10.356;2022-12-29T15:23:52;12.40;99.90
7046;DHT22;3564;53.326;10.356;2022-12-29T15:26:35;12.50;99.90
7046;DHT22;3564;53.326;10.356;2022-12-29T15:29:01;12.50;99.90
7046;DHT22;3564;53.326;10.356;2022-12-29T15:31:26;12.50;99.90
7046;DHT22;3564;53.326;10.356;2022-12-29T15:34:00;12.50;99.90
7046;DHT22;3564;53.326;10.356;2022-12-29T15:36:29;12.50;99.90
7046;DHT22;3564;53.326;10.356;2022-12-29T15:38:55;12.50;99.90
7046;DHT22;3564;53.326;10.356;2022-12-29T15:41:29;12.60;99.90
7046;DHT22;3564;53.326;10.356;2022-12-29T15:44:24;12.60;99.90
7046;DHT22;3564;53.326;10.356;2022-12-29T15:46:50;12.50;99.90
7046;DHT22;3564;53.326;10.356;2022-12-29T15:49:16;12.50;99.90
7046;DHT22;3564;53.326;10.356;2022-12-29T15:51:42;12.50;99.90
7046;DHT22;3564;53.326;10.356;2022-12-29T15:54:35;12.50;99.90
7046;DHT22;3564;53.326;10.356;2022-12-29T15:57:01;12.50;99.90
7046;DHT22;3564;53.326;10.356;2022-12-29T15:59:32;12.40;99.90
7046;DHT22;3564;53.326;10.356;2022-12-29T16:02:00;12.40;99.90
7046;DHT22;3564;53.326;10.356;2022-12-29T16:04:30;12.40;99.90
7046;DHT22;3564;53.326;10.356;2022-12-29T16:07:02;12.30;99.90
7046;DHT22;3564;53.326;10.356;2022-12-29T16:09:44;12.30;99.90
7046;DHT22;3564;53.326;10.356;2022-12-29T16:12:19;12.20;99.90
7046;DHT22;3564;53.326;10.356;2022-12-29T16:14:47;12.20;99.90
7046;DHT22;3564;53.326;10.356;2022-12-29T16:17:20;12.20;99.90
7046;DHT22;3564;53.326;10.356;2022-12-29T16:19:52;12.10;99.90
7046;DHT22;3564;53.326;10.356;2022-12-29T16:22:39;12.10;99.90
7046;DHT22;3564;53.326;10.356;2022-12-29T16:25:19;12.10;99.90
7046;DHT22;3564;53.326;10.356;2022-12-29T16:27:46;12.10;99.90
7046;DHT22;3564;53.326;10.356;2022-12-29T16:30:24;12.10;99.90
7046;DHT22;3564;53.326;10.356;2022-12-29T16:32:53;12.20;99.90
7046;DHT22;3564;53.326;10.356;2022-12-29T16:35:26;12.10;99.90
7046;DHT22;3564;53.326;10.356;2022-12-29T16:38:15;12.20;99.90
7046;DHT22;3564;53.326;10.356;2022-12-29T16:40:54;12.20;99.90
7046;DHT22;3564;53.326;10.356;2022-12-29T16:43:31;12.20;99.90
7046;DHT22;3564;53.326;10.356;2022-12-29T16:48:29;12.30;99.90
7046;DHT22;3564;53.326;10.356;2022-12-29T16:51:11;12.30;99.90
7046;DHT22;3564;53.326;10.356;2022-12-29T16:53:47;12.30;99.90
7046;DHT22;3564;53.326;10.356;2022-12-29T16:56:22;12.30;99.90
7046;DHT22;3564;53.326;10.356;2022-12-29T16:59:04;12.30;99.90
7046;DHT22;3564;53.326;10.356;2022-12-29T17:01:35;12.40;99.90
7046;DHT22;3564;53.326;10.356;2022-12-29T17:04:06;12.40;99.90
7046;DHT22;3564;53.326;10.356;2022-12-29T17:06:33;12.30;99.90
7046;DHT22;3564;53.326;10.356;2022-12-29T17:08:58;12.30;99.90
7046;DHT22;3564;53.326;10.356;2022-12-29T17:11:33;12.30;99.90
7046;DHT22;3564;53.326;10.356;2022-12-29T17:14:34;12.30;99.90
7046;DHT22;3564;53.326;10.356;2022-12-29T17:17:05;12.20;99.90
7046;DHT22;3564;53.326;10.356;2022-12-29T17:19:33;12.20;99.90
7046;DHT22;3564;53.326;10.356;2022-12-29T17:22:00;12.20;99.90
7046;DHT22;3564;53.326;10.356;2022-12-29T17:24:26;12.20;99.90
7046;DHT22;3564;53.326;10.356;2022-12-29T17:26:54;12.20;99.90
7046;DHT22;3564;53.326;10.356;2022-12-29T17:29:33;12.30;99.90
7046;DHT22;3564;53.326;10.356;2022-12-29T17:32:02;12.30;99.90
7046;DHT22;3564;53.326;10.356;2022-12-29T17:34:28;12.30;99.90
7046;DHT22;3564;53.326;10.356;2022-12-29T17:36:54;12.30;99.90
7046;DHT22;3564;53.326;10.356;2022-12-29T17:39:20;12.30;99.90
7046;DHT22;3564;53.326;10.356;2022-12-29T17:41:46;12.30;99.90
7046;DHT22;3564;53.326;10.356;2022-12-29T17:44:16;12.20;99.90
7046;DHT22;3564;53.326;10.356;2022-12-29T17:46:44;12.20;99.90
7046;DHT22;3564;53.326;10.356;2022-12-29T17:49:15;12.20;99.90
7046;DHT22;3564;53.326;10.356;2022-12-29T17:51:42;12.20;99.90
7046;DHT22;3564;53.326;10.356;2022-12-29T17:54:20;12.10;99.90
7046;DHT22;3564;53.326;10.356;2022-12-29T17:56:46;12.10;99.90
7046;DHT22;3564;53.326;10.356;2022-12-29T17:59:15;12.10;99.90
7046;DHT22;3564;53.326;10.356;2022-12-29T18:01:45;12.10;99.90
7046;DHT22;3564;53.326;10.356;2022-12-29T18:04:18;12.00;99.90
7046;DHT22;3564;53.326;10.356;2022-12-29T18:06:45;12.00;99.90
7046;DHT22;3564;53.326;10.356;2022-12-29T18:09:12;12.00;99.90
7046;DHT22;3564;53.326;10.356;2022-12-29T18:11:40;12.10;99.90